Time;durP1;ratioP1;P1;durP2;ratioP2;P2;SDS_P1;SDS_P2;PMS_P1;PMS_P2;Temp;Humidity;BMP_temperature;BMP_pressure;BME280_temperature;BME280_humidity;BME280_pressure;Samples;Min_cycle;Max_cycle;Signal;HPM_P1;HPM_P2
2023/10/30 00:02:00;;;;;;;3.70;0.77;;;;;;;14.03;79.52;99145.81;10314838;28;20046;-68
2023/10/30 00:07:02;;;;;;;4.72;1.08;;;;;;;14.08;79.31;99158.66;10315281;28;20034;-68
2023/10/30 00:12:03;;;;;;;2.72;1.10;;;;;;;14.14;79.15;99154.19;10313274;28;20042;-68
2023/10/30 00:17:05;;;;;;;3.13;1.50;;;;;;;14.24;78.69;99160.72;10314060;28;20450;-68
2023/10/30 00:22:10;;;;;;;8.10;1.77;;;;;;;14.19;79.31;99174.09;10314780;28;20048;-68
2023/10/30 00:27:12;;;;;;;8.85;2.70;;;;;;;14.21;79.54;99173.84;10313303;28;20054;-68
2023/10/30 00:32:14;;;;;;;5.13;2.20;;;;;;;14.23;79.43;99183.38;10314221;28;20061;-68
2023/10/30 00:37:15;;;;;;;9.20;4.38;;;;;;;14.29;79.53;99173.53;10313872;28;20046;-67
2023/10/30 00:42:16;;;;;;;6.18;2.67;;;;;;;14.36;79.39;99187.78;10312959;28;20053;-68
2023/10/30 00:47:18;;;;;;;8.48;3.30;;;;;;;14.38;79.32;99169.47;10311379;28;20096;-68
2023/10/30 00:52:19;;;;;;;7.25;3.22;;;;;;;14.48;79.19;99174.31;10313294;28;20686;-68
2023/10/30 00:57:21;;;;;;;9.15;4.43;;;;;;;14.47;79.36;99180.75;10312365;28;20042;-67
2023/10/30 01:02:22;;;;;;;9.00;3.67;;;;;;;14.57;79.22;99182.94;10311099;28;20568;-67
2023/10/30 01:07:24;;;;;;;7.68;3.28;;;;;;;14.58;79.24;99166.50;10314842;28;20659;-68
2023/10/30 01:12:25;;;;;;;10.48;4.03;;;;;;;14.62;79.07;99188.50;10313289;28;20054;-67
2023/10/30 01:17:27;;;;;;;7.78;2.60;;;;;;;14.67;79.24;99202.13;10311671;28;20050;-67
2023/10/30 01:22:28;;;;;;;6.80;2.80;;;;;;;14.63;79.21;99190.13;10311596;28;20071;-68
2023/10/30 01:27:30;;;;;;;4.88;2.22;;;;;;;14.62;79.39;99193.91;10313071;28;20667;-68
2023/10/30 01:32:31;;;;;;;8.52;1.67;;;;;;;14.63;79.31;99196.38;10313979;28;20459;-68
2023/10/30 01:37:33;;;;;;;2.90;1.17;;;;;;;14.62;79.54;99185.78;10305892;28;20121;-68
2023/10/30 01:42:34;;;;;;;1.70;1.00;;;;;;;14.69;79.30;99205.44;10312452;28;20054;-68
2023/10/30 01:47:37;;;;;;;1.38;0.65;;;;;;;14.75;79.26;99187.44;10309610;28;20061;-68
2023/10/30 01:52:39;;;;;;;4.40;0.90;;;;;;;14.71;79.37;99188.97;10313152;28;20042;-68
2023/10/30 01:57:41;;;;;;;1.88;0.50;;;;;;;14.76;79.10;99192.63;10312512;28;20508;-68
2023/10/30 02:02:43;;;;;;;1.90;0.60;;;;;;;14.79;79.00;99183.22;10313027;28;20120;-68
2023/10/30 02:07:45;;;;;;;5.22;0.45;;;;;;;14.78;79.02;99177.00;10310237;28;20062;-67
2023/10/30 02:12:50;;;;;;;4.43;0.70;;;;;;;14.85;78.69;99150.66;10326255;28;20038;-67
2023/10/30 02:17:52;;;;;;;1.10;0.30;;;;;;;14.84;78.94;99176.06;10310374;28;20042;-67
2023/10/30 02:22:54;;;;;;;3.42;0.47;;;;;;;14.89;78.63;99180.78;10316534;28;20143;-67
2023/10/30 02:27:56;;;;;;;1.60;0.50;;;;;;;14.85;78.89;99175.03;10318469;28;20050;-67
2023/10/30 02:32:58;;;;;;;3.70;0.50;;;;;;;14.92;78.66;99182.19;10316748;28;20085;-67
2023/10/30 02:38:00;;;;;;;4.90;0.65;;;;;;;14.86;78.57;99175.84;10316720;28;20046;-67
2023/10/30 02:43:02;;;;;;;4.57;0.60;;;;;;;14.85;78.65;99166.09;10318753;28;20067;-67
2023/10/30 02:48:03;;;;;;;2.47;0.30;;;;;;;14.83;78.69;99162.75;10317128;28;20046;-67
2023/10/30 02:53:05;;;;;;;4.43;0.77;;;;;;;14.78;78.91;99163.47;10318363;28;20054;-67
2023/10/30 02:58:07;;;;;;;0.95;0.40;;;;;;;14.71;78.99;99154.66;10315941;28;20065;-66
2023/10/30 03:03:09;;;;;;;1.92;0.28;;;;;;;14.70;78.85;99147.59;10316733;28;20057;-67
2023/10/30 03:08:11;;;;;;;4.72;0.40;;;;;;;14.74;78.52;99166.88;10316060;28;20109;-67
2023/10/30 03:13:13;;;;;;;2.53;0.22;;;;;;;14.65;78.85;99188.88;10317785;28;20042;-67
2023/10/30 03:18:14;;;;;;;3.22;0.30;;;;;;;14.70;78.70;99163.81;10316071;28;20054;-67
2023/10/30 03:23:16;;;;;;;1.73;0.20;;;;;;;14.75;78.40;99158.53;10316526;28;20557;-67
2023/10/30 03:28:17;;;;;;;2.05;0.30;;;;;;;14.76;78.04;99162.06;10316965;28;20532;-67
2023/10/30 03:33:20;;;;;;;2.20;0.30;;;;;;;14.79;77.79;99167.00;10315397;28;20050;-67
2023/10/30 03:38:22;;;;;;;1.13;0.30;;;;;;;14.78;78.02;99165.34;10313587;28;20047;-67
2023/10/30 03:43:23;;;;;;;2.65;0.50;;;;;;;14.70;77.99;99190.03;10315516;28;20465;-67
2023/10/30 03:48:25;;;;;;;1.90;0.55;;;;;;;14.72;77.72;99177.94;10315101;28;20176;-67
2023/10/30 03:53:26;;;;;;;2.33;0.30;;;;;;;14.73;77.55;99178.75;10315768;28;20042;-67
2023/10/30 03:58:27;;;;;;;2.40;0.50;;;;;;;14.64;77.80;99176.38;10314529;28;20054;-67
2023/10/30 04:03:29;;;;;;;2.03;0.20;;;;;;;14.55;77.98;99183.13;10315303;28;20057;-67
2023/10/30 04:08:31;;;;;;;2.13;0.38;;;;;;;14.46;78.30;99211.56;10312573;28;20050;-67
2023/10/30 04:13:32;;;;;;;1.40;0.30;;;;;;;14.51;77.95;99200.88;10314374;28;20053;-66
2023/10/30 04:18:33;;;;;;;2.22;0.22;;;;;;;14.45;77.95;99193.69;10313229;28;20509;-67
2023/10/30 04:23:36;;;;;;;0.75;0.30;;;;;;;14.43;78.13;99196.63;10313359;28;20086;-67
2023/10/30 04:28:38;;;;;;;1.42;0.30;;;;;;;14.44;78.09;99190.16;10311848;28;20438;-67
2023/10/30 04:33:39;;;;;;;4.00;0.38;;;;;;;14.41;78.32;99181.69;10313365;28;20061;-67
2023/10/30 04:38:41;;;;;;;2.15;0.50;;;;;;;14.44;77.91;99205.56;10312776;28;20092;-66
2023/10/30 04:43:43;;;;;;;2.88;0.20;;;;;;;14.40;77.83;99188.97;10314235;28;20050;-66
2023/10/30 04:48:44;;;;;;;1.83;0.25;;;;;;;14.43;77.90;99161.47;10314917;28;20039;-66
2023/10/30 04:53:45;;;;;;;5.70;0.30;;;;;;;14.47;77.63;99142.91;10314254;28;20042;-66
2023/10/30 04:58:47;;;;;;;1.83;0.28;;;;;;;14.46;77.68;99133.16;10313429;28;20043;-66
2023/10/30 05:03:48;;;;;;;2.85;0.22;;;;;;;14.46;77.31;99161.03;10311580;28;20046;-66
2023/10/30 05:08:50;;;;;;;2.97;0.40;;;;;;;14.40;77.50;99159.25;10311755;28;20053;-66
2023/10/30 05:13:51;;;;;;;3.25;0.20;;;;;;;14.39;77.43;99171.09;10311755;28;20044;-67
2023/10/30 05:18:53;;;;;;;1.80;0.70;;;;;;;14.29;77.76;99176.25;10313466;28;20054;-68
2023/10/30 05:23:54;;;;;;;1.52;0.30;;;;;;;14.23;77.71;99177.16;10311155;28;20054;-68
2023/10/30 05:28:55;;;;;;;3.00;0.20;;;;;;;14.14;77.85;99173.13;10295506;28;20058;-69
2023/10/30 05:33:57;;;;;;;2.50;0.17;;;;;;;14.00;78.26;99157.09;10324531;28;20046;-69
2023/10/30 05:38:58;;;;;;;3.15;0.30;;;;;;;13.87;78.53;99182.38;10304530;28;20405;-71
2023/10/30 05:44:00;;;;;;;0.80;0.20;;;;;;;13.69;78.96;99212.94;10313556;28;20042;-72
2023/10/30 05:49:01;;;;;;;3.88;0.75;;;;;;;13.55;79.40;99233.03;10325090;28;20585;-73
2023/10/30 05:54:03;;;;;;;1.27;0.30;;;;;;;13.45;79.70;99238.13;10311449;28;20054;-71
2023/10/30 05:59:04;;;;;;;2.47;0.40;;;;;;;13.43;79.79;99230.25;10319183;28;20053;-73
2023/10/30 06:04:06;;;;;;;2.60;0.30;;;;;;;13.40;79.94;99221.75;10318545;28;20042;-72
2023/10/30 06:09:08;;;;;;;1.73;0.20;;;;;;;13.21;80.61;99205.50;10320670;28;20113;-74
2023/10/30 06:14:09;;;;;;;3.60;0.30;;;;;;;13.10;80.93;99235.88;10311445;28;20054;-64
2023/10/30 06:19:11;;;;;;;2.58;0.30;;;;;;;13.03;81.14;99224.31;10313528;28;20058;-65
2023/10/30 06:24:12;;;;;;;2.13;0.30;;;;;;;12.99;81.55;99223.91;10312690;28;20047;-64
2023/10/30 06:29:13;;;;;;;2.05;0.35;;;;;;;13.16;80.65;99208.03;10313040;28;20046;-64
2023/10/30 06:34:15;;;;;;;5.70;0.50;;;;;;;13.23;80.83;99199.84;10312512;28;20513;-64
2023/10/30 06:39:20;;;;;;;6.32;0.82;;;;;;;13.31;80.53;99214.97;10310590;28;20046;-65
2023/10/30 06:44:22;;;;;;;2.50;0.60;;;;;;;13.27;80.85;99219.97;10314007;28;20038;-64
2023/10/30 06:49:24;;;;;;;3.50;0.55;;;;;;;13.32;80.61;99247.16;10316580;28;20050;-65
2023/10/30 06:54:26;;;;;;;2.55;0.50;;;;;;;13.24;80.82;99253.63;10331072;28;20065;-65
2023/10/30 06:59:27;;;;;;;5.85;0.47;;;;;;;13.27;80.89;99244.28;10329311;28;20043;-64
2023/10/30 07:04:30;;;;;;;2.30;0.90;;;;;;;13.34;80.81;99231.56;10315631;28;20138;-65
2023/10/30 07:09:31;;;;;;;2.20;0.50;;;;;;;13.36;80.68;99223.25;10314746;28;20062;-61
2023/10/30 07:14:33;;;;;;;5.90;0.60;;;;;;;13.38;80.93;99240.03;10314101;28;20042;-62
2023/10/30 07:19:34;;;;;;;5.95;0.80;;;;;;;13.31;81.28;99250.06;10315806;28;20042;-63
2023/10/30 07:24:36;;;;;;;2.33;0.55;;;;;;;13.33;81.15;99239.88;10315990;28;20057;-63
2023/10/30 07:29:38;;;;;;;1.70;0.68;;;;;;;13.42;80.98;99246.66;10313162;28;20054;-62
2023/10/30 07:34:42;;;;;;;5.18;0.50;;;;;;;13.45;81.16;99235.41;10315129;28;20050;-62
2023/10/30 07:39:44;;;;;;;3.28;0.80;;;;;;;13.55;80.92;99243.84;10315443;28;20069;-62
2023/10/30 07:44:45;;;;;;;5.70;0.85;;;;;;;13.57;81.01;99246.31;10313971;28;20054;-62
2023/10/30 07:49:47;;;;;;;4.45;1.10;;;;;;;13.53;81.11;99239.72;10313946;28;20476;-62
2023/10/30 07:54:49;;;;;;;1.95;0.47;;;;;;;13.54;81.18;99247.56;10315993;28;20042;-62
2023/10/30 07:59:50;;;;;;;3.17;0.50;;;;;;;13.59;81.26;99255.00;10314052;28;20034;-63
2023/10/30 08:04:52;;;;;;;3.00;0.60;;;;;;;13.59;81.36;99255.00;10312444;28;20137;-62
2023/10/30 08:09:55;;;;;;;3.28;0.60;;;;;;;13.63;81.72;99254.34;10316423;28;20046;-63
2023/10/30 08:14:58;;;;;;;2.35;0.68;;;;;;;13.71;81.60;99263.22;10316187;28;20050;-62
2023/10/30 08:20:00;;;;;;;6.45;0.70;;;;;;;13.85;81.54;99240.41;10313287;28;20113;-63
2023/10/30 08:25:02;;;;;;;4.57;0.57;;;;;;;13.95;81.75;99245.28;10312764;28;20038;-62
2023/10/30 08:30:05;;;;;;;3.42;0.63;;;;;;;14.07;81.78;99241.59;10313307;28;20093;-62
2023/10/30 08:35:07;;;;;;;3.00;0.77;;;;;;;14.02;81.89;99246.00;10317123;28;20042;-67
2023/10/30 08:40:09;;;;;;;5.30;0.80;;;;;;;14.05;81.81;99249.09;10334731;28;20052;-68
2023/10/30 08:45:11;;;;;;;4.05;0.77;;;;;;;14.01;81.99;99245.19;10331670;28;20165;-67
2023/10/30 08:50:12;;;;;;;3.90;0.82;;;;;;;14.15;81.64;99258.56;10313518;28;20162;-68
2023/10/30 08:55:14;;;;;;;4.50;0.75;;;;;;;14.18;81.65;99260.78;10328674;28;20044;-67
2023/10/30 09:00:16;;;;;;;7.32;0.60;;;;;;;14.17;81.69;99251.03;10310892;28;20046;-67
2023/10/30 09:05:18;;;;;;;3.03;0.70;;;;;;;14.17;82.05;99245.63;10309166;28;20050;-64
2023/10/30 09:10:26;;;;;;;3.20;0.75;;;;;;;14.16;82.11;99241.28;10313338;28;20042;-62
2023/10/30 09:15:28;;;;;;;5.63;0.90;;;;;;;14.23;82.08;99231.22;10332304;28;20093;-62
2023/10/30 09:20:29;;;;;;;3.90;0.70;;;;;;;14.19;82.29;99227.31;10342396;28;20043;-62
2023/10/30 09:25:31;;;;;;;3.65;1.00;;;;;;;14.28;82.18;99197.03;10327549;28;20043;-63
2023/10/30 09:30:32;;;;;;;4.63;1.00;;;;;;;14.40;82.17;99180.06;10326781;28;20035;-63
2023/10/30 09:35:35;;;;;;;1.67;0.70;;;;;;;14.52;82.15;99167.38;10333224;28;20077;-64
2023/10/30 09:40:37;;;;;;;6.20;0.77;;;;;;;14.65;82.20;99151.00;10333501;28;20046;-63
2023/10/30 09:45:40;;;;;;;1.30;0.70;;;;;;;14.71;82.50;99141.13;10333349;28;20050;-63
2023/10/30 09:50:42;;;;;;;2.42;0.75;;;;;;;14.78;82.50;99135.59;10335429;28;20108;-63
2023/10/30 09:55:47;;;;;;;3.30;0.70;;;;;;;14.94;82.18;99134.09;10329143;28;20050;-63
2023/10/30 10:00:49;;;;;;;1.48;0.80;;;;;;;14.98;82.15;99127.13;10330013;28;20123;-64
2023/10/30 10:05:58;;;;;;;3.13;0.77;;;;;;;15.21;82.39;99129.84;10332211;28;20489;-64
2023/10/30 10:11:01;;;;;;;1.67;0.50;;;;;;;15.31;82.56;99112.19;10332667;28;20057;-63
2023/10/30 10:16:03;;;;;;;3.58;0.70;;;;;;;15.41;82.74;99109.69;10332649;28;20066;-63
2023/10/30 10:21:08;;;;;;;2.45;0.50;;;;;;;15.51;83.05;99092.84;10346850;28;20038;-64
2023/10/30 10:26:14;;;;;;;2.28;0.55;;;;;;;15.56;82.72;99106.47;10329538;28;20054;-64
2023/10/30 10:31:17;;;;;;;2.72;0.40;;;;;;;15.63;82.26;99107.16;10328710;28;20560;-63
2023/10/30 10:36:18;;;;;;;0.65;0.30;;;;;;;15.58;82.10;99116.03;10313620;28;20054;-63
2023/10/30 10:41:20;;;;;;;0.90;0.40;;;;;;;15.77;81.97;99102.31;10298480;28;20061;-65
2023/10/30 10:46:22;;;;;;;1.38;0.50;;;;;;;15.94;81.70;99097.78;10329881;28;20286;-66
2023/10/30 10:51:33;;;;;;;1.20;0.30;;;;;;;15.70;81.69;99107.88;10332485;28;20096;-65
2023/10/30 10:56:37;;;;;;;2.67;0.82;;;;;;;15.63;81.38;99094.44;10333329;28;20042;-65
2023/10/30 11:01:41;;;;;;;2.17;0.40;;;;;;;15.72;81.08;99085.94;10337321;28;21244;-65
2023/10/30 11:06:48;;;;;;;0.88;0.30;;;;;;;15.75;80.81;99067.34;10346303;28;20359;-66
2023/10/30 11:12:01;;;;;;;1.08;0.30;;;;;;;15.83;80.77;99056.09;10327807;28;20039;-65
2023/10/30 11:17:05;;;;;;;0.95;0.32;;;;;;;15.97;80.78;99040.38;10316937;28;20054;-65
2023/10/30 11:22:06;;;;;;;2.45;0.40;;;;;;;16.17;80.49;99022.81;10318996;28;20058;-65
2023/10/30 11:27:26;;;;;;;1.90;0.98;;;;;;;16.35;80.07;99016.31;10317005;28;20049;-64
2023/10/30 11:32:33;;;;;;;4.18;0.60;;;;;;;16.43;79.96;98999.66;10320266;28;20130;-68
2023/10/30 11:37:35;;;;;;;;;;;;;;;16.51;80.33;98985.69;10314931;28;20050;-67
2023/10/30 11:42:40;;;;;;;1.83;0.45;;;;;;;16.65;80.02;98980.72;10321398;28;19951;-68
2023/10/30 11:47:42;;;;;;;0.47;0.35;;;;;;;16.69;79.50;98979.16;10333772;28;20046;-66
2023/10/30 11:52:47;;;;;;;2.85;0.40;;;;;;;16.93;78.92;98970.81;10317246;28;20104;-67
2023/10/30 11:57:48;;;;;;;2.03;1.30;;;;;;;16.96;78.58;98968.44;10318809;28;20077;-66
2023/10/30 12:02:50;;;;;;;4.57;0.30;;;;;;;17.04;78.50;98950.84;10331857;28;20054;-68
2023/10/30 12:07:52;;;;;;;2.58;0.30;;;;;;;17.06;78.24;98940.56;10317717;28;20046;-67
2023/10/30 12:12:54;;;;;;;0.88;0.30;;;;;;;17.13;78.22;98924.09;10320302;28;20039;-67
2023/10/30 12:17:56;;;;;;;2.55;0.40;;;;;;;17.21;77.94;98908.16;10316933;28;20054;-67
2023/10/30 12:22:58;;;;;;;1.92;0.40;;;;;;;17.30;77.51;98899.53;10329000;28;20053;-67
2023/10/30 12:28:01;;;;;;;1.33;0.40;;;;;;;17.23;76.93;98891.59;10317159;28;20038;-67
2023/10/30 12:33:03;;;;;;;2.60;1.00;;;;;;;17.24;76.64;98882.41;10316918;28;20054;-67
2023/10/30 12:38:14;;;;;;;1.48;0.57;;;;;;;17.25;76.62;98873.16;10310150;28;20046;-68
2023/10/30 12:43:16;;;;;;;3.95;0.35;;;;;;;17.38;76.03;98867.31;10330473;28;20050;-68
2023/10/30 12:48:18;;;;;;;0.68;0.40;;;;;;;17.39;76.34;98868.13;10324130;28;20042;-67
2023/10/30 12:53:20;;;;;;;0.70;0.50;;;;;;;17.49;76.42;98868.22;10295764;28;20082;-65
2023/10/30 12:58:23;;;;;;;1.92;0.63;;;;;;;17.56;75.57;98857.97;10291525;28;20051;-65
2023/10/30 13:03:27;;;;;;;1.53;0.40;;;;;;;17.48;75.62;98858.44;10286622;28;20045;-68
2023/10/30 13:08:31;;;;;;;2.13;0.32;;;;;;;17.38;75.34;98842.06;10301617;28;20105;-68
2023/10/30 13:13:32;;;;;;;2.40;0.38;;;;;;;17.35;75.17;98835.22;10278171;28;20049;-67
2023/10/30 13:18:35;;;;;;;1.05;0.47;;;;;;;17.40;74.96;98824.41;10279442;28;20057;-65
2023/10/30 13:23:37;;;;;;;0.47;0.30;;;;;;;17.35;74.73;98823.56;10272922;28;20066;-63
2023/10/30 13:28:39;;;;;;;1.67;0.70;;;;;;;17.27;74.89;98811.25;10272555;28;20055;-63
2023/10/30 13:33:40;;;;;;;1.60;0.38;;;;;;;17.10;74.96;98794.25;10272547;28;20055;-62
2023/10/30 13:38:42;;;;;;;1.95;0.40;;;;;;;17.17;74.87;98773.16;10269102;28;20051;-64
2023/10/30 13:43:45;;;;;;;1.15;0.40;;;;;;;17.17;74.59;98775.88;10269945;28;20054;-63
2023/10/30 13:48:47;;;;;;;3.15;0.30;;;;;;;16.90;75.38;98754.97;10273876;28;20051;-63
2023/10/30 13:53:50;;;;;;;1.10;0.30;;;;;;;16.97;74.88;98725.72;10273507;28;20101;-62
2023/10/30 13:58:51;;;;;;;1.50;0.30;;;;;;;17.05;74.65;98721.72;10275764;28;20046;-64
2023/10/30 14:03:53;;;;;;;1.98;0.60;;;;;;;16.95;74.65;98724.38;10313515;28;20049;-64
2023/10/30 14:08:54;;;;;;;0.93;0.30;;;;;;;16.84;74.84;98710.72;10315231;28;20045;-63
2023/10/30 14:13:56;;;;;;;0.85;0.28;;;;;;;16.80;74.97;98703.28;10312534;28;20824;-63
2023/10/30 14:18:57;;;;;;;1.45;0.50;;;;;;;16.87;74.76;98684.13;10317847;28;20085;-63
2023/10/30 14:23:59;;;;;;;2.15;0.50;;;;;;;16.94;74.53;98674.69;10319196;28;20069;-63
2023/10/30 14:29:00;;;;;;;1.48;0.50;;;;;;;16.96;74.67;98679.84;10320344;28;20034;-63
2023/10/30 14:34:02;;;;;;;1.40;0.70;;;;;;;16.91;74.63;98699.63;10318465;28;20138;-63
2023/10/30 14:39:05;;;;;;;3.40;0.57;;;;;;;16.91;74.57;98694.19;10319475;28;20121;-63
2023/10/30 14:44:07;;;;;;;2.30;0.50;;;;;;;16.95;74.67;98695.31;10329635;28;20042;-63
2023/10/30 14:49:08;;;;;;;2.72;0.50;;;;;;;16.99;74.42;98677.44;10332580;28;20054;-63
2023/10/30 14:54:10;;;;;;;1.85;0.70;;;;;;;17.02;74.39;98657.94;10327979;28;20504;-62
2023/10/30 14:59:12;;;;;;;2.95;0.60;;;;;;;17.03;74.31;98662.25;10330377;28;20075;-63
2023/10/30 15:04:14;;;;;;;2.67;0.65;;;;;;;17.03;73.95;98662.25;10329764;28;20050;-62
2023/10/30 15:09:16;;;;;;;5.85;1.33;;;;;;;16.93;74.76;98661.38;10327915;28;20052;-63
2023/10/30 15:14:18;;;;;;;6.75;2.92;;;;;;;16.99;74.48;98663.84;10304268;28;20133;-61
2023/10/30 15:19:19;;;;;;;2.28;1.08;;;;;;;17.03;74.52;98651.41;10344875;28;20038;-60
2023/10/30 15:24:20;;;;;;;1.50;0.70;;;;;;;16.90;74.68;98638.25;10345343;28;20375;-61
2023/10/30 15:29:22;;;;;;;1.80;0.70;;;;;;;16.84;74.58;98636.59;10343705;28;20069;-61
2023/10/30 15:34:23;;;;;;;2.25;1.10;;;;;;;16.89;74.49;98652.13;10330069;28;20054;-61
2023/10/30 15:39:25;;;;;;;2.00;0.90;;;;;;;16.83;74.62;98648.53;10330258;28;20767;-61
2023/10/30 15:44:26;;;;;;;3.35;1.25;;;;;;;16.63;75.26;98663.53;10328705;28;20050;-61
2023/10/30 15:49:28;;;;;;;2.55;1.38;;;;;;;16.70;75.11;98636.19;10326808;28;20046;-62
2023/10/30 15:54:30;;;;;;;1.88;1.00;;;;;;;16.70;74.75;98633.47;10331248;28;20081;-63
2023/10/30 15:59:31;;;;;;;2.70;0.88;;;;;;;16.48;75.22;98640.88;10327599;28;20046;-61
2023/10/30 16:04:33;;;;;;;4.88;1.42;;;;;;;16.42;75.52;98626.44;10324648;28;20113;-62
2023/10/30 16:09:37;;;;;;;5.43;2.00;;;;;;;16.48;75.18;98625.41;10325399;28;20053;-67
2023/10/30 16:14:39;;;;;;;3.85;2.75;;;;;;;16.39;75.45;98589.81;10324984;28;20054;-68
2023/10/30 16:19:40;;;;;;;2.60;1.90;;;;;;;16.25;76.02;98613.81;10296901;28;20379;-68
2023/10/30 16:24:42;;;;;;;2.10;1.77;;;;;;;16.04;76.44;98606.53;10314920;28;20046;-68
2023/10/30 16:29:43;;;;;;;6.05;2.50;;;;;;;16.05;76.54;98594.63;10314241;28;20061;-68
2023/10/30 16:34:45;;;;;;;3.70;2.40;;;;;;;16.13;76.41;98596.06;10311664;28;20046;-70
2023/10/30 16:39:46;;;;;;;10.52;3.65;;;;;;;16.18;75.78;98586.09;10315696;28;20057;-69
2023/10/30 16:44:50;;;;;;;5.43;3.85;;;;;;;16.17;76.04;98565.47;10311372;28;20074;-69
2023/10/30 16:49:51;;;;;;;6.70;3.70;;;;;;;16.00;76.39;98556.63;10314907;28;20708;-69
2023/10/30 16:54:53;;;;;;;4.72;2.88;;;;;;;15.96;76.23;98552.81;10312974;28;20144;-68
2023/10/30 16:59:55;;;;;;;8.30;2.53;;;;;;;15.98;76.34;98556.88;10312824;28;20073;-69
2023/10/30 17:04:56;;;;;;;5.80;2.97;;;;;;;15.96;76.45;98558.22;10308483;28;20073;-68
2023/10/30 17:09:57;;;;;;;7.82;3.08;;;;;;;16.02;76.12;98578.88;10311540;28;20454;-68
2023/10/30 17:14:59;;;;;;;3.47;2.92;;;;;;;16.03;75.95;98580.50;10315337;28;20913;-72
2023/10/30 17:20:00;;;;;;;5.20;3.05;;;;;;;15.95;76.33;98584.47;10295105;28;20649;-71
2023/10/30 17:25:02;;;;;;;5.07;2.65;;;;;;;15.85;76.59;98587.91;10341483;28;20066;-73
2023/10/30 17:30:04;;;;;;;4.32;2.00;;;;;;;15.81;76.55;98578.66;10321656;28;20138;-73
2023/10/30 17:35:06;;;;;;;7.22;1.95;;;;;;;15.70;76.80;98581.47;10323989;28;20042;-72
2023/10/30 17:40:09;;;;;;;4.30;3.15;;;;;;;15.62;76.96;98569.19;10347656;28;20080;-74
2023/10/30 17:45:10;;;;;;;6.07;2.85;;;;;;;15.44;77.45;98573.03;10326540;28;20047;-73
2023/10/30 17:50:12;;;;;;;7.05;4.18;;;;;;;15.43;77.60;98582.22;10329900;28;20050;-72
2023/10/30 17:55:16;;;;;;;9.48;5.72;;;;;;;15.55;77.37;98580.22;10347592;28;20350;-75
2023/10/30 18:00:19;;;;;;;13.52;8.40;;;;;;;15.62;77.21;98578.16;10346726;28;20069;-75
2023/10/30 18:05:20;;;;;;;21.38;11.35;;;;;;;15.63;77.34;98574.34;10342582;28;20062;-76
2023/10/30 18:10:22;;;;;;;13.85;8.18;;;;;;;15.65;77.19;98571.38;10330959;28;20042;-78
2023/10/30 18:15:24;;;;;;;28.60;13.23;;;;;;;15.54;77.18;98572.34;10330420;28;20047;-77
2023/10/30 18:20:29;;;;;;;28.17;14.50;;;;;;;15.56;77.29;98586.44;10325053;28;20046;-77
2023/10/30 18:25:32;;;;;;;10.85;5.75;;;;;;;15.58;77.36;98587.84;10351481;28;20042;-78
2023/10/30 18:30:34;;;;;;;8.63;4.60;;;;;;;15.57;77.35;98588.91;10347590;28;20050;-78
2023/10/30 18:35:36;;;;;;;7.60;3.60;;;;;;;15.55;77.17;98582.91;10333534;28;20042;-78
2023/10/30 18:40:42;;;;;;;8.40;3.70;;;;;;;15.51;77.45;98578.28;10355645;28;20026;-79
2023/10/30 18:45:44;;;;;;;10.23;3.50;;;;;;;15.46;77.64;98581.72;10347125;28;20065;-77
2023/10/30 18:50:45;;;;;;;11.77;3.85;;;;;;;15.41;77.88;98571.66;10342851;28;20050;-75
2023/10/30 18:55:47;;;;;;;13.20;7.20;;;;;;;15.36;78.15;98576.16;10323813;28;20058;-77
2023/10/30 19:00:49;;;;;;;13.68;5.75;;;;;;;15.31;78.20;98570.72;10330230;28;20058;-70
2023/10/30 19:05:50;;;;;;;8.35;4.70;;;;;;;15.26;78.35;98566.03;10299313;28;20064;-69
2023/10/30 19:10:53;;;;;;;9.52;4.65;;;;;;;15.24;78.55;98569.00;10311747;28;20054;-69
2023/10/30 19:15:55;;;;;;;7.55;4.35;;;;;;;15.24;78.50;98560.88;10364685;28;20057;-69
2023/10/30 19:20:57;;;;;;;8.98;4.38;;;;;;;15.19;78.51;98563.50;10369593;28;20069;-68
2023/10/30 19:25:59;;;;;;;7.72;4.72;;;;;;;15.20;78.76;98567.03;10328758;28;20043;-70
2023/10/30 19:31:02;;;;;;;13.60;5.13;;;;;;;15.11;79.31;98563.94;10339122;28;20390;-67
2023/10/30 19:36:06;;;;;;;8.27;4.88;;;;;;;15.13;79.00;98553.69;10335945;28;20089;-68
2023/10/30 19:41:07;;;;;;;9.30;4.88;;;;;;;15.10;79.36;98556.06;10341261;28;20678;-71
2023/10/30 19:46:08;;;;;;;9.43;4.80;;;;;;;15.14;79.37;98541.78;10322577;28;20052;-70
2023/10/30 19:51:10;;;;;;;8.15;4.50;;;;;;;15.17;79.14;98537.78;10327014;28;20112;-71
2023/10/30 19:56:12;;;;;;;8.00;5.53;;;;;;;15.15;79.37;98529.91;10335442;28;20054;-69
2023/10/30 20:01:13;;;;;;;14.07;5.90;;;;;;;15.18;79.33;98533.97;10350030;28;20062;-68
2023/10/30 20:06:16;;;;;;;19.00;5.97;;;;;;;15.15;79.41;98532.59;10331401;28;20038;-70
2023/10/30 20:11:18;;;;;;;11.38;5.03;;;;;;;15.13;79.44;98528.53;10336461;28;20486;-73
2023/10/30 20:16:19;;;;;;;9.02;5.38;;;;;;;15.12;79.47;98524.16;10349463;28;20046;-76
2023/10/30 20:21:20;;;;;;;6.68;4.25;;;;;;;15.10;79.89;98518.19;10348665;28;20047;-73
2023/10/30 20:26:22;;;;;;;14.75;5.43;;;;;;;15.11;80.13;98507.13;10339292;28;20066;-75
2023/10/30 20:31:25;;;;;;;11.93;6.28;;;;;;;15.14;80.06;98509.31;10338971;28;20070;-75
2023/10/30 20:36:27;;;;;;;12.43;6.63;;;;;;;15.13;80.29;98496.84;10336770;28;20173;-73
2023/10/30 20:41:29;;;;;;;10.57;5.70;;;;;;;15.16;80.24;98493.63;10330779;28;20460;-75
2023/10/30 20:46:32;;;;;;;14.57;6.50;;;;;;;15.10;80.41;98500.06;10348415;28;20046;-74
2023/10/30 20:51:35;;;;;;;13.98;5.57;;;;;;;15.00;80.72;98503.44;10339555;28;20101;-75
2023/10/30 20:56:37;;;;;;;12.43;5.85;;;;;;;14.99;81.04;98507.22;10347399;28;20126;-75
2023/10/30 21:01:38;;;;;;;12.75;5.65;;;;;;;14.97;81.12;98501.25;10309866;28;20559;-79
2023/10/30 21:06:40;;;;;;;13.07;5.90;;;;;;;15.04;81.08;98495.66;10333385;28;20519;-76
2023/10/30 21:11:41;;;;;;;14.35;6.30;;;;;;;14.90;81.57;98503.31;10293468;28;20543;-78
2023/10/30 21:16:43;;;;;;;23.60;9.05;;;;;;;14.92;81.71;98498.47;10291256;28;20058;-72
2023/10/30 21:21:45;;;;;;;20.40;8.48;;;;;;;14.90;81.86;98497.09;10270236;28;20068;-76
2023/10/30 21:26:47;;;;;;;16.70;8.43;;;;;;;14.87;81.91;98483.00;10295777;28;20046;-78
2023/10/30 21:31:49;;;;;;;20.48;9.02;;;;;;;14.84;82.13;98482.69;10299875;28;20513;-76
2023/10/30 21:36:50;;;;;;;19.90;8.98;;;;;;;14.93;82.03;98485.75;10322562;28;20054;-75
2023/10/30 21:41:52;;;;;;;16.55;7.65;;;;;;;14.92;81.89;98486.84;10275557;28;20137;-76
2023/10/30 21:46:54;;;;;;;20.42;7.78;;;;;;;14.91;82.20;98482.47;10334754;28;20046;-80
2023/10/30 21:51:55;;;;;;;17.88;8.43;;;;;;;14.97;81.87;98476.91;10351737;28;20035;-80
2023/10/30 21:56:57;;;;;;;18.25;7.70;;;;;;;14.95;81.88;98483.63;10323759;28;20065;-78
2023/10/30 22:01:58;;;;;;;15.20;8.18;;;;;;;14.91;81.96;98477.06;10325782;28;20065;-76
2023/10/30 22:07:01;;;;;;;15.23;8.40;;;;;;;14.95;82.05;98470.94;10311164;28;20050;-78
2023/10/30 22:12:03;;;;;;;13.88;7.88;;;;;;;14.91;82.31;98471.66;10338781;28;20130;-74
2023/10/30 22:17:04;;;;;;;17.13;8.13;;;;;;;14.80;82.64;98471.53;10319854;28;20056;-74
2023/10/30 22:22:06;;;;;;;17.02;8.23;;;;;;;14.71;82.93;98472.22;10322447;28;20058;-71
2023/10/30 22:27:07;;;;;;;18.58;9.02;;;;;;;14.69;82.94;98475.16;10319998;28;20054;-75
2023/10/30 22:32:09;;;;;;;20.25;8.90;;;;;;;14.62;82.96;98479.94;10341306;28;20061;-77
2023/10/30 22:37:11;;;;;;;17.58;9.27;;;;;;;14.57;83.09;98485.25;10337390;28;20058;-78
2023/10/30 22:42:12;;;;;;;15.15;7.32;;;;;;;14.55;83.05;98487.38;10334113;28;20101;-79
2023/10/30 22:47:14;;;;;;;15.38;7.70;;;;;;;14.65;82.78;98490.25;10330679;28;20058;-77
2023/10/30 22:52:15;;;;;;;16.17;6.63;;;;;;;14.56;83.16;98489.00;10321065;28;20063;-77
2023/10/30 22:57:17;;;;;;;14.90;6.95;;;;;;;14.53;82.92;98503.81;10346429;28;20046;-76
2023/10/30 23:02:18;;;;;;;13.77;6.25;;;;;;;14.56;82.91;98514.19;10352149;28;20073;-77
2023/10/30 23:07:20;;;;;;;12.38;6.07;;;;;;;14.52;82.82;98502.22;10365296;28;20046;-74
2023/10/30 23:12:21;;;;;;;11.02;5.22;;;;;;;14.46;83.02;98500.50;10369600;28;20037;-75
2023/10/30 23:17:24;;;;;;;8.18;4.75;;;;;;;14.46;83.07;98497.78;10327942;28;20043;-77
2023/10/30 23:22:25;;;;;;;8.65;4.03;;;;;;;14.40;83.16;98510.41;10346512;28;20043;-76